Time;durP1;ratioP1;P1;durP2;ratioP2;P2;SDS_P1;SDS_P2;PMS_P1;PMS_P2;Temp;Humidity;BMP_temperature;BMP_pressure;BME280_temperature;BME280_humidity;BME280_pressure;Samples;Min_cycle;Max_cycle;Signal;HPM_P1;HPM_P2
2022/03/15 00:02:22;;;;;;;12.88;7.25;;;;;;;-4.28;66.24;102861.47;1828239;77;21044;-59
2022/03/15 00:04:51;;;;;;;17.23;7.20;;;;;;;-4.21;66.27;102858.81;1826379;78;21060;-58
2022/03/15 00:07:20;;;;;;;8.23;4.47;;;;;;;-4.19;65.97;102844.77;1842923;76;21084;-59
2022/03/15 00:09:49;;;;;;;16.65;7.37;;;;;;;-4.06;66.11;102858.78;1881179;76;21486;-60
2022/03/15 00:12:18;;;;;;;21.75;7.70;;;;;;;-4.03;66.10;102853.81;1881076;76;21042;-60
2022/03/15 00:14:47;;;;;;;15.15;6.95;;;;;;;-4.03;66.10;102853.81;1881166;76;21489;-62
2022/03/15 00:17:15;;;;;;;12.78;5.30;;;;;;;-4.04;65.92;102855.88;1881150;76;21441;-62
2022/03/15 00:19:45;;;;;;;9.68;4.75;;;;;;;-4.07;65.89;102845.03;1881263;76;21086;-57
2022/03/15 00:22:38;;;;;;;12.50;5.83;;;;;;;-4.09;65.92;102847.05;1881223;76;21050;-57
2022/03/15 00:25:09;;;;;;;14.87;5.80;;;;;;;-4.12;66.04;102844.30;1897388;75;21163;-57
2022/03/15 00:27:38;;;;;;;7.97;4.95;;;;;;;-4.15;65.92;102842.45;1897405;76;21670;-58
2022/03/15 00:30:08;;;;;;;12.18;6.03;;;;;;;-4.16;65.91;102839.80;1897366;75;21492;-59
2022/03/15 00:32:37;;;;;;;14.18;6.20;;;;;;;-4.20;65.87;102836.58;1897392;76;21100;-60
2022/03/15 00:35:08;;;;;;;10.00;5.28;;;;;;;-4.23;65.87;102842.83;1897293;76;21082;-60
2022/03/15 00:37:36;;;;;;;14.73;7.47;;;;;;;-4.28;65.89;102842.18;1897148;75;21078;-58
2022/03/15 00:40:06;;;;;;;15.48;6.00;;;;;;;-4.31;65.95;102842.00;1897318;75;21121;-57
2022/03/15 00:42:35;;;;;;;12.55;6.25;;;;;;;-4.31;66.04;102845.86;1897393;76;21113;-57
2022/03/15 00:45:05;;;;;;;17.12;7.10;;;;;;;-4.33;66.20;102845.30;1897345;76;21132;-63
2022/03/15 00:47:33;;;;;;;13.03;7.03;;;;;;;-4.33;66.22;102837.17;1897242;76;21108;-61
2022/03/15 00:50:02;;;;;;;9.03;4.95;;;;;;;-4.34;66.61;102837.08;1897393;74;21023;-63
2022/03/15 00:52:31;;;;;;;14.65;7.92;;;;;;;-4.36;66.48;102840.84;1897337;74;21058;-63
2022/03/15 00:55:00;;;;;;;16.23;8.35;;;;;;;-4.40;66.59;102832.48;1897342;74;21030;-61
2022/03/15 00:57:29;;;;;;;17.48;7.60;;;;;;;-4.43;66.70;102836.16;1897306;75;21554;-61
2022/03/15 00:59:58;;;;;;;19.10;7.85;;;;;;;-4.45;66.63;102835.19;1897720;74;21418;-60
2022/03/15 01:02:27;;;;;;;24.87;11.80;;;;;;;-4.49;66.64;102828.98;1897264;76;21076;-58
2022/03/15 01:04:56;;;;;;;18.95;9.53;;;;;;;-4.50;66.77;102830.19;1897448;75;21455;-59
2022/03/15 01:07:26;;;;;;;15.30;7.35;;;;;;;-4.49;66.75;102833.25;1897247;76;21551;-59
2022/03/15 01:09:55;;;;;;;24.18;11.73;;;;;;;-4.47;66.91;102829.95;1897334;75;21116;-58
2022/03/15 01:12:23;;;;;;;15.05;6.17;;;;;;;-4.43;67.16;102828.45;1897367;76;21108;-58
2022/03/15 01:14:52;;;;;;;17.37;8.58;;;;;;;-4.35;67.43;102832.34;1896978;75;21090;-60
2022/03/15 01:17:21;;;;;;;19.17;8.65;;;;;;;-4.27;67.51;102828.50;1896120;75;21132;-59
2022/03/15 01:19:50;;;;;;;21.17;6.40;;;;;;;-4.17;67.48;102826.43;1896373;76;21023;-62
2022/03/15 01:22:19;;;;;;;9.88;4.87;;;;;;;-4.09;67.47;102826.06;1895430;76;21551;-59
2022/03/15 01:24:48;;;;;;;22.65;11.80;;;;;;;-4.00;67.44;102833.40;1895559;75;21087;-59
2022/03/15 01:27:17;;;;;;;16.25;7.42;;;;;;;-3.81;67.60;102834.39;1895302;75;21054;-59
2022/03/15 01:29:45;;;;;;;16.35;7.10;;;;;;;-3.81;67.60;102834.39;1895564;76;21034;-60
2022/03/15 01:32:16;;;;;;;14.87;6.83;;;;;;;-3.72;67.26;102831.02;1896588;75;21026;-61
2022/03/15 01:34:46;;;;;;;14.10;6.95;;;;;;;-3.66;67.21;102832.62;1895971;75;21092;-60
2022/03/15 01:37:14;;;;;;;9.58;5.58;;;;;;;-3.61;67.22;102831.18;1897287;74;21148;-58
2022/03/15 01:39:43;;;;;;;7.58;4.67;;;;;;;-3.56;67.21;102828.83;1897168;76;21058;-58
2022/03/15 01:42:12;;;;;;;14.38;7.60;;;;;;;-3.52;67.17;102824.34;1897410;76;21050;-58
2022/03/15 01:44:49;;;;;;;7.28;4.08;;;;;;;-3.43;67.18;102826.48;1897009;75;21026;-59
2022/03/15 01:47:19;;;;;;;12.28;7.17;;;;;;;-3.36;67.15;102832.45;1897380;76;21112;-59
2022/03/15 01:49:48;;;;;;;19.27;8.15;;;;;;;-3.34;67.36;102825.67;1895757;76;21468;-57
2022/03/15 01:52:17;;;;;;;19.37;7.53;;;;;;;-3.31;67.29;102820.28;1890262;76;21082;-59
2022/03/15 01:54:46;;;;;;;17.92;8.08;;;;;;;-3.27;67.44;102820.45;1890415;76;21618;-58
2022/03/15 01:57:16;;;;;;;16.70;7.97;;;;;;;-3.22;67.58;102808.28;1890583;76;21105;-59
2022/03/15 01:59:44;;;;;;;16.85;6.53;;;;;;;-3.05;67.07;102822.02;1890474;76;21566;-61
2022/03/15 02:02:13;;;;;;;16.90;8.23;;;;;;;-3.00;67.28;102816.69;1924012;74;21035;-60
2022/03/15 02:04:42;;;;;;;11.45;3.65;;;;;;;-3.00;67.28;102816.69;1930376;74;21474;-62
2022/03/15 02:07:16;;;;;;;14.07;5.83;;;;;;;-2.93;67.27;102816.60;1930303;74;21137;-59
2022/03/15 02:12:38;;;;;;;17.80;8.60;;;;;;;-2.88;66.96;102811.24;1838429;78;21051;-58
2022/03/15 02:15:08;;;;;;;20.27;8.30;;;;;;;-2.85;66.97;102819.14;1839208;78;21102;-59
2022/03/15 02:17:37;;;;;;;10.55;5.67;;;;;;;-2.84;67.02;102814.48;1839070;78;21164;-58
2022/03/15 02:20:08;;;;;;;10.35;4.70;;;;;;;-2.87;67.20;102806.58;1830587;78;21077;-59
2022/03/15 02:22:37;;;;;;;19.25;7.42;;;;;;;-2.84;67.35;102809.70;1834195;78;21145;-58
2022/03/15 02:25:06;;;;;;;12.28;6.67;;;;;;;-2.83;67.26;102808.49;1833508;77;21657;-59
2022/03/15 02:27:35;;;;;;;14.87;6.67;;;;;;;-2.80;67.38;102802.20;1831615;77;21174;-59
2022/03/15 02:30:06;;;;;;;15.95;7.65;;;;;;;-2.76;67.46;102800.25;1832370;78;21139;-59
2022/03/15 02:32:35;;;;;;;13.50;8.08;;;;;;;-2.69;67.23;102804.03;1835329;77;21043;-60
2022/03/15 02:35:04;;;;;;;16.93;8.00;;;;;;;-2.69;67.23;102804.03;1834798;78;21468;-59
2022/03/15 02:37:34;;;;;;;13.08;5.50;;;;;;;-2.69;67.51;102801.83;1832456;78;21088;-60
2022/03/15 02:40:03;;;;;;;26.75;9.18;;;;;;;-2.67;67.51;102793.76;1832400;78;21060;-59
2022/03/15 02:42:33;;;;;;;10.65;5.83;;;;;;;-2.62;67.46;102797.45;1832259;77;21638;-61
2022/03/15 02:45:02;;;;;;;20.27;8.48;;;;;;;-2.59;67.43;102794.61;1832476;78;21121;-59
2022/03/15 02:47:30;;;;;;;15.98;6.55;;;;;;;-2.54;67.95;102796.14;1831196;78;21051;-60
2022/03/15 02:49:59;;;;;;;18.25;8.58;;;;;;;-2.54;67.95;102796.14;1793179;80;21084;-59
2022/03/15 02:52:29;;;;;;;19.40;9.28;;;;;;;-2.50;67.39;102795.88;1793116;80;21107;-59
2022/03/15 02:55:04;;;;;;;18.70;8.88;;;;;;;-2.46;67.35;102794.80;1799138;78;21563;-58
2022/03/15 02:57:28;;;;;;;23.57;7.17;;;;;;;-2.41;67.28;102794.61;1813838;77;21167;-59
2022/03/15 02:59:58;;;;;;;16.55;7.67;;;;;;;-2.33;67.11;102799.71;1840427;78;21139;-59
2022/03/15 03:02:27;;;;;;;17.42;8.50;;;;;;;-2.33;67.11;102799.71;1815541;78;21113;-60
2022/03/15 03:04:56;;;;;;;25.62;9.18;;;;;;;-2.30;67.27;102795.53;1810489;79;21085;-61
2022/03/15 03:07:24;;;;;;;20.27;8.50;;;;;;;-2.28;67.26;102793.91;1810428;79;21090;-62
2022/03/15 03:09:53;;;;;;;28.12;11.48;;;;;;;-2.26;67.24;102798.31;1810486;79;21109;-62
2022/03/15 03:12:23;;;;;;;18.95;8.85;;;;;;;-2.24;67.25;102788.95;1827596;77;21212;-61
2022/03/15 03:14:54;;;;;;;19.32;8.60;;;;;;;-2.23;67.29;102787.23;1850762;77;21042;-60
2022/03/15 03:17:24;;;;;;;18.42;7.62;;;;;;;-2.25;67.52;102787.58;1851919;77;21023;-61
2022/03/15 03:19:52;;;;;;;14.50;7.42;;;;;;;-2.26;67.51;102787.12;1851657;77;21027;-59
2022/03/15 03:22:21;;;;;;;22.00;8.83;;;;;;;-2.26;67.51;102787.12;1851738;77;21015;-60
2022/03/15 03:24:50;;;;;;;17.10;8.38;;;;;;;-2.30;67.62;102782.64;1851750;77;21059;-61
2022/03/15 03:27:19;;;;;;;15.45;6.62;;;;;;;-2.26;68.06;102787.99;1852003;77;21527;-59
2022/03/15 03:29:48;;;;;;;13.85;6.95;;;;;;;-2.26;67.99;102784.54;1851701;77;21147;-59
2022/03/15 03:32:17;;;;;;;18.62;7.67;;;;;;;-2.27;67.90;102777.59;1851889;77;21046;-62
2022/03/15 03:34:46;;;;;;;19.40;9.00;;;;;;;-2.24;67.75;102786.78;1851796;77;21435;-61
2022/03/15 03:37:15;;;;;;;19.27;7.75;;;;;;;-2.23;67.66;102781.70;1851799;77;21023;-60
2022/03/15 03:39:43;;;;;;;20.85;9.15;;;;;;;-2.19;67.61;102784.02;1851821;77;21058;-61
2022/03/15 03:42:12;;;;;;;18.65;7.97;;;;;;;-2.18;67.61;102785.34;1840710;77;21049;-61
2022/03/15 03:44:44;;;;;;;20.37;8.45;;;;;;;-2.16;67.60;102789.30;1838946;77;21081;-62
2022/03/15 03:47:13;;;;;;;21.60;8.85;;;;;;;-2.14;67.61;102789.86;1842963;77;21118;-62
2022/03/15 03:49:41;;;;;;;20.43;8.65;;;;;;;-2.14;67.71;102787.66;1841966;77;21011;-60
2022/03/15 03:52:12;;;;;;;21.27;10.88;;;;;;;-2.16;67.81;102786.71;1865662;77;21059;-60
2022/03/15 03:54:40;;;;;;;13.78;7.53;;;;;;;-2.12;67.83;102786.45;1865628;77;21125;-60
2022/03/15 03:57:09;;;;;;;19.45;10.48;;;;;;;-2.14;68.02;102783.41;1865667;77;21043;-60
2022/03/15 03:59:38;;;;;;;16.82;8.55;;;;;;;-2.13;67.98;102784.28;1865517;77;21087;-61
2022/03/15 04:02:07;;;;;;;29.40;14.95;;;;;;;-2.10;67.98;102779.66;1841218;77;21078;-60
2022/03/15 04:04:36;;;;;;;14.83;8.28;;;;;;;-2.08;68.01;102777.64;1834757;78;21505;-60
2022/03/15 04:07:07;;;;;;;34.58;20.10;;;;;;;-2.08;68.03;102778.93;1834761;78;21059;-60
2022/03/15 04:09:36;;;;;;;35.88;17.52;;;;;;;-2.08;68.03;102776.77;1834787;78;21035;-59
2022/03/15 04:12:05;;;;;;;34.73;19.10;;;;;;;-2.07;68.20;102776.81;1832264;78;21171;-60
2022/03/15 04:14:35;;;;;;;25.72;14.23;;;;;;;-2.06;68.39;102776.02;1826431;78;21082;-60
2022/03/15 04:17:06;;;;;;;28.52;16.57;;;;;;;-2.07;68.73;102773.35;1826390;78;21054;-62
2022/03/15 04:19:35;;;;;;;9.88;4.80;;;;;;;-2.07;69.00;102767.77;1826295;78;21093;-59
2022/03/15 04:22:04;;;;;;;17.82;9.15;;;;;;;-2.00;69.03;102768.53;1826366;78;21050;-60
2022/03/15 04:24:33;;;;;;;19.12;8.30;;;;;;;-1.93;68.98;102766.25;1826288;78;21153;-60
2022/03/15 04:27:02;;;;;;;21.40;10.58;;;;;;;-1.83;68.84;102764.53;1826364;78;21049;-60
2022/03/15 04:29:31;;;;;;;9.70;4.15;;;;;;;-1.76;68.69;102761.41;1826288;77;21484;-60
2022/03/15 04:32:00;;;;;;;14.50;7.45;;;;;;;-1.69;68.58;102756.99;1826309;78;21555;-60
2022/03/15 04:34:31;;;;;;;23.02;9.28;;;;;;;-1.59;68.41;102754.39;1826122;78;21171;-59
2022/03/15 04:37:01;;;;;;;16.10;7.83;;;;;;;-1.51;68.20;102753.42;1826156;78;21061;-61
2022/03/15 04:39:29;;;;;;;14.35;6.55;;;;;;;-1.44;68.16;102752.88;1826421;78;21114;-62
2022/03/15 04:41:58;;;;;;;18.95;7.47;;;;;;;-1.37;68.05;102747.14;1826365;78;21108;-61
2022/03/15 04:44:26;;;;;;;16.17;8.73;;;;;;;-1.29;67.98;102750.05;1826337;78;21116;-61
2022/03/15 04:46:56;;;;;;;17.30;7.92;;;;;;;-1.21;67.91;102750.85;1826392;78;21052;-62
2022/03/15 04:49:25;;;;;;;13.83;7.30;;;;;;;-1.15;67.84;102753.23;1827849;78;21562;-60
2022/03/15 04:51:53;;;;;;;14.70;7.95;;;;;;;-1.07;67.76;102751.83;1840579;78;21026;-58
2022/03/15 04:54:22;;;;;;;12.18;5.90;;;;;;;-0.98;67.65;102749.61;1840515;78;21074;-61
2022/03/15 04:56:51;;;;;;;19.73;8.85;;;;;;;-0.89;67.58;102748.70;1840643;78;21060;-58
2022/03/15 04:59:19;;;;;;;19.92;9.60;;;;;;;-0.80;67.59;102747.77;1840633;78;21175;-58
2022/03/15 05:01:48;;;;;;;20.17;10.30;;;;;;;-0.76;67.54;102758.25;1855950;77;21050;-60
2022/03/15 05:04:17;;;;;;;20.92;8.65;;;;;;;-0.70;67.45;102754.22;1863594;77;21612;-60
2022/03/15 05:06:46;;;;;;;23.45;9.68;;;;;;;-0.63;67.38;102750.14;1863496;77;21140;-63
2022/03/15 05:09:14;;;;;;;28.77;10.45;;;;;;;-0.57;67.28;102747.82;1863520;77;21132;-60
2022/03/15 05:11:46;;;;;;;28.77;12.85;;;;;;;-0.47;67.19;102748.63;1863551;77;21196;-62
2022/03/15 05:14:16;;;;;;;24.18;12.10;;;;;;;-0.37;67.08;102748.98;1852625;77;21162;-62
2022/03/15 05:16:45;;;;;;;22.30;10.75;;;;;;;-0.26;67.01;102745.09;1851678;77;21074;-63
2022/03/15 05:19:14;;;;;;;24.52;11.63;;;;;;;-0.12;66.90;102750.80;1851751;77;21066;-61
2022/03/15 05:21:42;;;;;;;15.72;7.83;;;;;;;0.00;66.78;102737.02;1851838;77;21043;-62
2022/03/15 05:24:11;;;;;;;15.68;7.95;;;;;;;0.11;66.73;102735.70;1851741;77;21148;-61
2022/03/15 05:26:40;;;;;;;17.23;8.35;;;;;;;0.20;66.61;102735.13;1852049;77;21098;-57
2022/03/15 05:29:09;;;;;;;17.07;7.47;;;;;;;0.29;66.55;102739.77;1851738;76;21117;-58
2022/03/15 05:31:38;;;;;;;14.75;6.67;;;;;;;0.35;66.49;102726.62;1851860;77;21113;-58
2022/03/15 05:34:07;;;;;;;16.57;7.97;;;;;;;0.43;66.44;102727.30;1851854;77;21556;-58
2022/03/15 05:36:36;;;;;;;16.70;8.28;;;;;;;0.54;66.35;102728.55;1851840;77;21007;-57
2022/03/15 05:39:04;;;;;;;19.85;9.85;;;;;;;0.61;66.16;102730.91;1851808;77;21093;-58
2022/03/15 05:41:35;;;;;;;13.43;6.33;;;;;;;0.64;65.99;102725.84;1851729;77;21000;-59
2022/03/15 05:44:03;;;;;;;15.78;8.60;;;;;;;0.73;65.93;102736.53;1851828;77;21094;-58
2022/03/15 05:46:32;;;;;;;16.23;7.70;;;;;;;0.86;65.99;102731.34;1851813;77;21517;-58
2022/03/15 05:49:01;;;;;;;15.93;6.97;;;;;;;1.08;65.96;102731.19;1851813;77;21541;-60
2022/03/15 05:51:30;;;;;;;15.85;6.92;;;;;;;1.33;65.80;102729.39;1835179;77;21062;-58
2022/03/15 05:53:58;;;;;;;11.50;6.17;;;;;;;1.59;65.61;102730.17;1834975;78;21063;-57
2022/03/15 05:56:27;;;;;;;10.78;6.12;;;;;;;1.82;65.31;102730.84;1834668;78;21118;-58
2022/03/15 05:58:56;;;;;;;13.45;7.05;;;;;;;1.97;64.83;102730.83;1834962;78;21066;-57
2022/03/15 06:01:24;;;;;;;15.40;7.10;;;;;;;2.10;64.67;102727.73;1843490;77;21039;-58
2022/03/15 06:03:53;;;;;;;11.68;5.62;;;;;;;2.36;64.54;102722.36;1851863;77;21054;-62
2022/03/15 06:06:24;;;;;;;11.65;5.37;;;;;;;2.61;64.24;102726.06;1851789;77;21556;-61
2022/03/15 06:08:52;;;;;;;14.75;6.42;;;;;;;2.81;63.88;102726.58;1851767;77;21140;-61
2022/03/15 06:11:21;;;;;;;13.70;6.65;;;;;;;2.97;63.74;102721.73;1851973;77;21486;-61
2022/03/15 06:13:50;;;;;;;15.25;6.70;;;;;;;3.17;63.61;102726.13;1855743;77;21090;-59
2022/03/15 06:16:19;;;;;;;12.58;6.28;;;;;;;3.26;63.22;102730.23;1861064;77;21565;-59
2022/03/15 06:18:47;;;;;;;10.95;5.97;;;;;;;3.28;63.15;102724.24;1861158;77;21128;-61
2022/03/15 06:21:16;;;;;;;10.00;5.17;;;;;;;3.33;62.94;102732.14;1860946;77;21074;-59
2022/03/15 06:23:45;;;;;;;13.25;5.87;;;;;;;3.36;62.82;102724.41;1861056;77;21074;-57
2022/03/15 06:26:15;;;;;;;15.40;6.47;;;;;;;3.38;62.93;102726.62;1861118;77;21108;-58
2022/03/15 06:28:43;;;;;;;14.43;6.22;;;;;;;3.45;62.68;102724.62;1861211;77;21543;-59
2022/03/15 06:31:14;;;;;;;12.13;5.55;;;;;;;3.56;62.48;102722.25;1861071;77;21070;-59
2022/03/15 06:33:42;;;;;;;11.08;5.62;;;;;;;3.72;62.28;102719.53;1861104;77;21034;-60
2022/03/15 06:36:15;;;;;;;12.65;6.28;;;;;;;3.88;61.84;102716.83;1861136;77;21057;-60
2022/03/15 06:38:43;;;;;;;14.25;6.80;;;;;;;3.99;61.28;102719.66;1861003;77;21038;-60
2022/03/15 06:41:12;;;;;;;16.97;6.42;;;;;;;4.03;61.17;102723.65;1860975;77;21018;-60
2022/03/15 06:43:41;;;;;;;12.50;5.95;;;;;;;4.17;61.13;102709.59;1861187;76;21074;-60
2022/03/15 06:46:11;;;;;;;13.35;6.03;;;;;;;4.33;61.25;102715.08;1861099;76;21575;-62
2022/03/15 06:48:39;;;;;;;14.38;6.70;;;;;;;4.47;61.09;102725.79;1861058;77;21121;-61
2022/03/15 06:51:08;;;;;;;12.68;5.90;;;;;;;4.46;60.79;102718.36;1851633;77;21099;-60
2022/03/15 06:53:37;;;;;;;13.72;5.90;;;;;;;4.49;60.76;102719.73;1849452;77;21509;-60
2022/03/15 06:56:06;;;;;;;18.73;6.85;;;;;;;4.86;60.53;102715.14;1849397;77;21156;-59
2022/03/15 06:58:36;;;;;;;11.48;5.42;;;;;;;5.27;60.35;102714.02;1849353;77;21106;-59
2022/03/15 07:01:05;;;;;;;15.68;6.33;;;;;;;5.62;59.72;102711.89;1853694;77;21200;-59
2022/03/15 07:03:34;;;;;;;13.18;6.53;;;;;;;5.74;59.15;102713.38;1861192;76;21106;-58
2022/03/15 07:06:03;;;;;;;14.15;6.10;;;;;;;5.74;58.98;102710.76;1861121;77;21469;-60
2022/03/15 07:08:32;;;;;;;13.72;6.35;;;;;;;5.64;58.56;102718.02;1861056;76;21180;-59
2022/03/15 07:11:00;;;;;;;17.23;7.05;;;;;;;5.52;58.25;102713.95;1861056;77;21571;-60
2022/03/15 07:13:29;;;;;;;14.53;6.75;;;;;;;5.31;58.37;102712.80;1861122;77;21050;-62
2022/03/15 07:15:58;;;;;;;13.62;6.08;;;;;;;5.19;58.63;102711.30;1861089;76;21074;-60
2022/03/15 07:18:26;;;;;;;15.53;7.03;;;;;;;5.03;58.53;102708.47;1861195;77;21078;-62
2022/03/15 07:20:55;;;;;;;15.60;7.53;;;;;;;4.85;58.71;102708.19;1861243;77;21193;-61
2022/03/15 07:23:24;;;;;;;13.60;6.62;;;;;;;4.75;58.84;102704.52;1861254;77;21164;-62
2022/03/15 07:25:54;;;;;;;14.58;6.78;;;;;;;4.70;58.88;102702.69;1861014;77;21157;-58
2022/03/15 07:28:22;;;;;;;14.87;7.70;;;;;;;4.53;58.75;102703.28;1861185;77;21090;-58
2022/03/15 07:30:51;;;;;;;11.20;6.37;;;;;;;4.45;58.87;102708.80;1861217;77;21134;-58
2022/03/15 07:33:21;;;;;;;17.65;6.17;;;;;;;4.39;58.94;102702.14;1861377;76;21137;-59
2022/03/15 07:35:49;;;;;;;14.03;7.03;;;;;;;4.34;58.95;102698.59;1861117;77;21042;-59
2022/03/15 07:38:19;;;;;;;15.43;7.45;;;;;;;4.36;58.93;102695.59;1861387;77;21031;-60
2022/03/15 07:40:49;;;;;;;20.50;6.70;;;;;;;4.40;58.93;102701.31;1856075;76;21038;-58
2022/03/15 07:43:19;;;;;;;13.60;7.22;;;;;;;4.38;58.73;102705.63;1850309;76;21050;-59
2022/03/15 07:45:48;;;;;;;17.05;6.83;;;;;;;4.34;58.85;102699.91;1850281;77;21054;-59
2022/03/15 07:48:17;;;;;;;15.18;7.58;;;;;;;4.30;58.88;102696.36;1849526;77;21128;-58
2022/03/15 07:50:46;;;;;;;13.88;6.83;;;;;;;4.38;59.01;102704.31;1849576;77;21078;-61
2022/03/15 07:53:15;;;;;;;16.07;6.85;;;;;;;4.47;59.03;102706.22;1849490;77;21631;-59
2022/03/15 07:55:43;;;;;;;12.80;6.87;;;;;;;4.49;59.02;102704.08;1852094;76;21094;-60
2022/03/15 07:58:12;;;;;;;15.20;7.15;;;;;;;4.52;58.90;102700.23;1861159;77;21114;-60
2022/03/15 08:00:41;;;;;;;14.07;6.20;;;;;;;4.51;58.66;102710.20;1861176;77;21437;-60
2022/03/15 08:03:10;;;;;;;17.73;8.10;;;;;;;4.45;58.16;102703.58;1861163;77;21043;-60
2022/03/15 08:05:38;;;;;;;13.18;6.50;;;;;;;4.42;58.49;102699.60;1861149;77;21087;-61
2022/03/15 08:08:08;;;;;;;13.22;6.20;;;;;;;4.42;58.57;102702.21;1861192;77;21099;-61
2022/03/15 08:10:37;;;;;;;15.70;6.47;;;;;;;4.42;58.66;102696.99;1860356;77;21078;-60
2022/03/15 08:13:05;;;;;;;15.50;7.12;;;;;;;4.47;58.72;102700.57;1861181;77;21046;-60
2022/03/15 08:15:34;;;;;;;15.10;6.25;;;;;;;4.54;58.72;102698.52;1856219;77;21082;-60
2022/03/15 08:18:04;;;;;;;15.43;6.65;;;;;;;4.64;58.65;102699.11;1851853;77;21055;-59
2022/03/15 08:20:42;;;;;;;13.53;6.42;;;;;;;4.67;58.34;102692.19;1850886;77;21552;-61
2022/03/15 08:23:12;;;;;;;15.05;7.17;;;;;;;4.70;58.44;102689.20;1837273;77;21054;-61
2022/03/15 08:25:41;;;;;;;13.85;6.20;;;;;;;4.81;58.55;102693.30;1834791;78;21099;-60
2022/03/15 08:28:09;;;;;;;15.68;6.92;;;;;;;4.94;58.36;102680.02;1834781;78;21043;-61
2022/03/15 08:30:38;;;;;;;15.23;7.00;;;;;;;5.01;58.21;102675.34;1834731;78;21555;-61
2022/03/15 08:33:07;;;;;;;16.62;7.95;;;;;;;5.12;58.06;102678.12;1867866;77;21121;-60
2022/03/15 08:35:36;;;;;;;15.10;7.12;;;;;;;5.20;58.06;102679.09;1872022;77;21047;-61
2022/03/15 08:38:05;;;;;;;11.85;5.67;;;;;;;5.32;57.83;102676.66;1871144;77;21532;-60
2022/03/15 08:40:34;;;;;;;14.43;6.58;;;;;;;5.37;57.54;102675.00;1865672;77;21039;-61
2022/03/15 08:43:04;;;;;;;11.80;5.92;;;;;;;5.38;57.41;102671.52;1865638;77;21184;-62
2022/03/15 08:45:34;;;;;;;16.00;6.90;;;;;;;5.38;57.39;102671.95;1865639;76;21111;-62
2022/03/15 08:48:03;;;;;;;15.43;6.65;;;;;;;5.34;57.32;102669.72;1865655;76;21890;-61
2022/03/15 08:50:32;;;;;;;19.35;7.00;;;;;;;5.34;57.36;102675.38;1851455;77;21030;-63
2022/03/15 08:53:02;;;;;;;16.60;6.97;;;;;;;5.44;57.39;102672.05;1851998;77;21336;-61
2022/03/15 08:55:31;;;;;;;17.73;7.47;;;;;;;5.47;57.38;102668.59;1851816;77;21050;-62
2022/03/15 08:58:00;;;;;;;15.88;7.00;;;;;;;5.52;57.29;102668.23;1851916;77;21071;-60
2022/03/15 09:00:29;;;;;;;15.98;8.03;;;;;;;5.49;57.00;102663.82;1852099;77;21501;-59
2022/03/15 09:02:58;;;;;;;13.98;6.70;;;;;;;5.50;57.11;102660.80;1852011;77;21075;-59
2022/03/15 09:05:27;;;;;;;18.23;6.10;;;;;;;5.51;57.09;102661.23;1835246;77;21063;-65
2022/03/15 09:07:57;;;;;;;16.02;7.87;;;;;;;5.54;57.00;102659.97;1834779;78;21051;-61
2022/03/15 09:10:26;;;;;;;16.37;7.37;;;;;;;5.57;56.92;102650.84;1834791;78;21110;-62
2022/03/15 09:12:54;;;;;;;16.80;6.17;;;;;;;5.65;57.10;102650.97;1834778;78;21501;-60
2022/03/15 09:15:24;;;;;;;14.40;5.62;;;;;;;5.77;57.07;102645.86;1837084;77;21070;-59
2022/03/15 09:17:53;;;;;;;19.00;7.47;;;;;;;5.86;57.01;102642.48;1843574;78;21563;-59
2022/03/15 09:20:22;;;;;;;18.67;7.47;;;;;;;5.91;56.95;102639.05;1843607;78;21160;-60
2022/03/15 09:22:52;;;;;;;16.85;6.33;;;;;;;6.00;56.86;102646.16;1843490;78;21713;-63
2022/03/15 09:25:23;;;;;;;14.95;7.15;;;;;;;6.06;56.72;102650.58;1844991;76;21575;-59
2022/03/15 09:27:52;;;;;;;13.65;6.00;;;;;;;6.06;56.45;102644.91;1843579;77;21042;-59
2022/03/15 09:30:22;;;;;;;14.75;6.67;;;;;;;5.90;56.39;102645.57;1843593;78;21591;-61
2022/03/15 09:32:51;;;;;;;13.72;5.37;;;;;;;5.82;56.62;102643.31;1843660;78;21138;-59
2022/03/15 09:35:19;;;;;;;14.58;5.95;;;;;;;5.87;56.58;102641.20;1844300;77;21058;-59
2022/03/15 09:37:49;;;;;;;12.68;5.15;;;;;;;6.13;56.43;102639.31;1843695;77;21030;-59
2022/03/15 09:40:21;;;;;;;13.53;6.45;;;;;;;6.37;56.10;102643.90;1843704;78;21042;-61
2022/03/15 09:42:52;;;;;;;16.48;6.58;;;;;;;6.48;55.97;102640.94;1842971;78;21054;-60
2022/03/15 09:45:23;;;;;;;14.63;7.20;;;;;;;6.59;55.80;102635.80;1844527;76;21111;-59
2022/03/15 09:47:57;;;;;;;13.53;5.50;;;;;;;6.53;55.88;102631.84;1874698;76;21135;-59
2022/03/15 09:50:26;;;;;;;11.88;5.72;;;;;;;6.45;55.73;102633.05;1874727;76;21039;-59
2022/03/15 09:52:57;;;;;;;13.10;6.47;;;;;;;6.31;55.60;102632.08;1868519;76;21505;-59
2022/03/15 09:55:26;;;;;;;13.00;6.17;;;;;;;6.18;55.67;102631.09;1857871;77;21117;-60
2022/03/15 09:57:56;;;;;;;13.43;6.75;;;;;;;6.01;55.44;102629.59;1857818;77;21478;-61
2022/03/15 10:00:25;;;;;;;14.78;6.20;;;;;;;5.83;55.79;102629.36;1857874;77;21630;-61
2022/03/15 10:02:54;;;;;;;15.13;7.08;;;;;;;5.67;56.22;102616.14;1856657;76;21121;-61
2022/03/15 10:05:24;;;;;;;16.12;6.33;;;;;;;5.70;56.46;102614.88;1858027;77;21505;-62
2022/03/15 10:07:54;;;;;;;13.00;6.83;;;;;;;5.86;56.67;102612.41;1857847;77;21124;-62
2022/03/15 10:10:24;;;;;;;17.23;6.78;;;;;;;6.20;56.62;102613.67;1857950;76;21022;-61
2022/03/15 10:12:53;;;;;;;11.75;4.60;;;;;;;6.56;56.27;102603.05;1857736;77;21112;-61
2022/03/15 10:15:25;;;;;;;13.60;6.33;;;;;;;6.82;55.96;102607.59;1827652;77;21627;-61
2022/03/15 10:21:25;;;;;;;13.75;5.87;;;;;;;7.03;55.64;102599.01;1790029;80;21137;-60
2022/03/15 10:27:37;;;;;;;14.50;6.40;;;;;;;7.14;55.51;102598.19;1794978;80;21140;-61
2022/03/15 10:33:36;;;;;;;10.70;5.80;;;;;;;7.45;55.44;102584.32;1794929;80;21223;-62
2022/03/15 10:39:49;;;;;;;13.83;5.58;;;;;;;7.67;55.30;102580.92;1795120;80;21094;-60
2022/03/15 10:46:01;;;;;;;14.50;7.22;;;;;;;7.88;55.31;102569.59;1801845;79;21133;-60
2022/03/15 10:52:10;;;;;;;12.85;5.50;;;;;;;8.35;54.73;102556.03;1808415;79;21050;-60
2022/03/15 10:54:39;;;;;;;10.88;4.37;;;;;;;9.08;53.82;102555.48;1808837;79;21109;-59
2022/03/15 11:01:09;;;;;;;10.78;4.85;;;;;;;9.54;52.70;102539.48;1805728;79;21741;-61
2022/03/15 11:03:38;;;;;;;11.48;5.12;;;;;;;10.27;51.30;102529.27;1891792;75;21573;-56
2022/03/15 11:06:08;;;;;;;13.32;5.28;;;;;;;10.54;50.49;102533.44;1861987;75;21155;-58
2022/03/15 11:08:37;;;;;;;7.97;4.40;;;;;;;10.77;50.01;102520.04;1887717;75;21552;-58
2022/03/15 11:11:06;;;;;;;10.38;5.33;;;;;;;10.74;49.72;102514.79;1858917;76;21826;-62
2022/03/15 11:13:37;;;;;;;10.82;5.37;;;;;;;10.64;49.50;102518.41;1862483;77;21038;-62
2022/03/15 11:16:08;;;;;;;11.25;6.40;;;;;;;11.10;49.22;102515.25;1862486;77;21030;-61
2022/03/15 11:18:38;;;;;;;7.33;4.30;;;;;;;11.67;47.41;102493.31;1866993;76;21053;-59
2022/03/15 11:21:07;;;;;;;9.40;3.52;;;;;;;11.40;45.68;102490.21;1867434;76;21033;-59
2022/03/15 11:23:39;;;;;;;8.65;4.22;;;;;;;10.82;46.96;102505.02;1868203;76;21151;-58
2022/03/15 11:26:12;;;;;;;13.08;5.22;;;;;;;11.01;47.28;102488.98;1860656;77;21018;-59
2022/03/15 11:28:43;;;;;;;8.95;4.40;;;;;;;11.39;47.11;102490.23;1858470;76;21131;-59
2022/03/15 11:31:12;;;;;;;9.58;4.47;;;;;;;11.84;47.00;102488.22;1891046;75;21548;-62
2022/03/15 11:33:41;;;;;;;14.50;4.83;;;;;;;12.10;46.78;102486.52;1891026;76;21488;-61
2022/03/15 11:36:12;;;;;;;9.08;4.92;;;;;;;12.24;46.40;102479.20;1891070;75;21464;-61
2022/03/15 11:38:43;;;;;;;10.23;4.75;;;;;;;12.30;46.58;102476.46;1891252;75;21112;-62
2022/03/15 11:41:12;;;;;;;10.43;5.55;;;;;;;12.11;46.37;102475.04;1890903;76;21033;-61
2022/03/15 11:44:03;;;;;;;11.28;4.72;;;;;;;11.76;46.44;102480.44;1891092;76;21492;-62
2022/03/15 11:46:46;;;;;;;8.80;3.77;;;;;;;11.41;46.81;102479.20;1890875;76;21112;-62
2022/03/15 11:49:36;;;;;;;8.45;4.65;;;;;;;11.13;47.13;102476.09;1891162;75;21038;-61
2022/03/15 11:52:08;;;;;;;11.40;5.03;;;;;;;10.85;47.20;102470.33;1890704;76;21436;-61
2022/03/15 11:54:59;;;;;;;11.95;4.72;;;;;;;10.74;47.02;102466.05;1891053;75;21037;-61
2022/03/15 11:57:32;;;;;;;9.80;4.75;;;;;;;10.41;46.00;102468.17;1828673;76;21496;-61
2022/03/15 12:00:00;;;;;;;8.73;4.17;;;;;;;10.20;46.74;102465.30;1863211;75;21025;-61
2022/03/15 12:02:40;;;;;;;10.72;5.05;;;;;;;10.07;47.10;102460.15;1871380;76;21081;-62